sensor_id;sensor_type;location;lat;lon;timestamp;temperature;humidity
2897;DHT22;1458;49.728;9.228;2023-10-13T00:02:13;16.10;99.90
2897;DHT22;1458;49.728;9.228;2023-10-13T00:04:40;16.00;99.90
2897;DHT22;1458;49.728;9.228;2023-10-13T00:07:08;16.00;99.90
2897;DHT22;1458;49.728;9.228;2023-10-13T00:09:37;16.00;99.90
2897;DHT22;1458;49.728;9.228;2023-10-13T00:12:05;16.00;99.90
2897;DHT22;1458;49.728;9.228;2023-10-13T00:14:40;16.00;99.90
2897;DHT22;1458;49.728;9.228;2023-10-13T00:17:11;16.00;99.90
2897;DHT22;1458;49.728;9.228;2023-10-13T00:19:45;15.90;99.90
2897;DHT22;1458;49.728;9.228;2023-10-13T00:22:17;15.90;99.90
2897;DHT22;1458;49.728;9.228;2023-10-13T00:24:45;16.00;99.90
2897;DHT22;1458;49.728;9.228;2023-10-13T00:27:15;16.00;99.90
2897;DHT22;1458;49.728;9.228;2023-10-13T00:29:57;16.00;99.90
2897;DHT22;1458;49.728;9.228;2023-10-13T00:32:44;16.10;99.90
2897;DHT22;1458;49.728;9.228;2023-10-13T00:35:12;16.10;99.90
2897;DHT22;1458;49.728;9.228;2023-10-13T00:37:50;16.10;99.90
2897;DHT22;1458;49.728;9.228;2023-10-13T00:40:19;16.10;99.90
2897;DHT22;1458;49.728;9.228;2023-10-13T00:43:09;16.20;99.90
2897;DHT22;1458;49.728;9.228;2023-10-13T00:45:57;16.20;99.90
2897;DHT22;1458;49.728;9.228;2023-10-13T00:48:34;16.20;99.90
2897;DHT22;1458;49.728;9.228;2023-10-13T00:51:09;16.30;99.90
2897;DHT22;1458;49.728;9.228;2023-10-13T00:53:44;16.30;99.90
2897;DHT22;1458;49.728;9.228;2023-10-13T00:56:14;16.40;99.90
2897;DHT22;1458;49.728;9.228;2023-10-13T00:58:49;16.40;99.90
2897;DHT22;1458;49.728;9.228;2023-10-13T01:01:18;16.30;99.90
2897;DHT22;1458;49.728;9.228;2023-10-13T01:03:49;16.30;99.90
2897;DHT22;1458;49.728;9.228;2023-10-13T01:06:17;16.30;99.90
2897;DHT22;1458;49.728;9.228;2023-10-13T01:08:46;16.30;99.90
2897;DHT22;1458;49.728;9.228;2023-10-13T01:11:18;16.30;99.90
2897;DHT22;1458;49.728;9.228;2023-10-13T01:13:50;16.30;99.90
2897;DHT22;1458;49.728;9.228;2023-10-13T01:16:19;16.30;99.90
2897;DHT22;1458;49.728;9.228;2023-10-13T01:18:49;16.30;99.90
2897;DHT22;1458;49.728;9.228;2023-10-13T01:21:16;16.20;99.90
2897;DHT22;1458;49.728;9.228;2023-10-13T01:23:47;16.20;99.90
2897;DHT22;1458;49.728;9.228;2023-10-13T01:26:16;16.10;99.90
2897;DHT22;1458;49.728;9.228;2023-10-13T01:28:51;16.10;99.90
2897;DHT22;1458;49.728;9.228;2023-10-13T01:31:17;16.10;99.90
2897;DHT22;1458;49.728;9.228;2023-10-13T01:33:56;16.10;99.90
2897;DHT22;1458;49.728;9.228;2023-10-13T01:36:25;16.10;99.90
2897;DHT22;1458;49.728;9.228;2023-10-13T01:38:54;16.10;99.90
2897;DHT22;1458;49.728;9.228;2023-10-13T01:41:21;16.10;99.90
2897;DHT22;1458;49.728;9.228;2023-10-13T01:43:49;16.10;99.90
2897;DHT22;1458;49.728;9.228;2023-10-13T01:46:15;16.10;99.90
2897;DHT22;1458;49.728;9.228;2023-10-13T01:48:47;16.10;99.90
2897;DHT22;1458;49.728;9.228;2023-10-13T01:51:14;16.00;99.90
2897;DHT22;1458;49.728;9.228;2023-10-13T01:53:42;16.00;99.90
2897;DHT22;1458;49.728;9.228;2023-10-13T01:56:10;16.00;99.90
2897;DHT22;1458;49.728;9.228;2023-10-13T01:58:38;15.90;99.90
2897;DHT22;1458;49.728;9.228;2023-10-13T02:01:08;15.90;99.90
2897;DHT22;1458;49.728;9.228;2023-10-13T02:03:36;15.80;99.90
2897;DHT22;1458;49.728;9.228;2023-10-13T02:06:09;15.70;99.90
2897;DHT22;1458;49.728;9.228;2023-10-13T02:08:42;15.60;99.90
2897;DHT22;1458;49.728;9.228;2023-10-13T02:11:11;15.60;99.90
2897;DHT22;1458;49.728;9.228;2023-10-13T02:13:40;15.60;99.90
2897;DHT22;1458;49.728;9.228;2023-10-13T02:16:14;15.60;99.90
2897;DHT22;1458;49.728;9.228;2023-10-13T02:18:47;15.60;99.90
2897;DHT22;1458;49.728;9.228;2023-10-13T02:21:17;15.50;99.90
2897;DHT22;1458;49.728;9.228;2023-10-13T02:23:43;15.60;99.90
2897;DHT22;1458;49.728;9.228;2023-10-13T02:26:13;15.60;99.90
2897;DHT22;1458;49.728;9.228;2023-10-13T02:28:41;15.60;99.90
2897;DHT22;1458;49.728;9.228;2023-10-13T02:31:10;15.60;99.90
2897;DHT22;1458;49.728;9.228;2023-10-13T02:33:37;15.70;99.90
2897;DHT22;1458;49.728;9.228;2023-10-13T02:36:11;15.70;99.90
2897;DHT22;1458;49.728;9.228;2023-10-13T02:38:38;15.60;99.90
2897;DHT22;1458;49.728;9.228;2023-10-13T02:41:13;15.70;99.90
2897;DHT22;1458;49.728;9.228;2023-10-13T02:43:46;15.60;99.90
2897;DHT22;1458;49.728;9.228;2023-10-13T02:46:13;15.70;99.90
2897;DHT22;1458;49.728;9.228;2023-10-13T02:48:42;15.60;99.90
2897;DHT22;1458;49.728;9.228;2023-10-13T02:51:12;15.50;99.90
2897;DHT22;1458;49.728;9.228;2023-10-13T02:53:43;15.30;99.90
2897;DHT22;1458;49.728;9.228;2023-10-13T02:56:14;15.30;99.90
2897;DHT22;1458;49.728;9.228;2023-10-13T02:58:47;15.30;99.90
2897;DHT22;1458;49.728;9.228;2023-10-13T03:01:19;15.40;99.90
2897;DHT22;1458;49.728;9.228;2023-10-13T03:03:48;15.40;99.90
2897;DHT22;1458;49.728;9.228;2023-10-13T03:06:21;15.30;99.90
2897;DHT22;1458;49.728;9.228;2023-10-13T03:08:49;15.20;99.90
2897;DHT22;1458;49.728;9.228;2023-10-13T03:11:17;15.10;99.90
2897;DHT22;1458;49.728;9.228;2023-10-13T03:13:48;15.00;99.90
2897;DHT22;1458;49.728;9.228;2023-10-13T03:16:18;14.90;99.90
2897;DHT22;1458;49.728;9.228;2023-10-13T03:18:47;14.90;99.90
2897;DHT22;1458;49.728;9.228;2023-10-13T03:21:21;14.80;99.90
2897;DHT22;1458;49.728;9.228;2023-10-13T03:23:56;14.70;99.90
2897;DHT22;1458;49.728;9.228;2023-10-13T03:26:33;14.90;99.90
2897;DHT22;1458;49.728;9.228;2023-10-13T03:29:10;15.00;99.90
2897;DHT22;1458;49.728;9.228;2023-10-13T03:31:40;15.00;99.90
2897;DHT22;1458;49.728;9.228;2023-10-13T03:34:11;14.90;99.90
2897;DHT22;1458;49.728;9.228;2023-10-13T03:36:39;14.80;99.90
2897;DHT22;1458;49.728;9.228;2023-10-13T03:39:25;14.70;99.90
2897;DHT22;1458;49.728;9.228;2023-10-13T03:41:58;14.70;99.90
2897;DHT22;1458;49.728;9.228;2023-10-13T03:44:26;14.80;99.90
2897;DHT22;1458;49.728;9.228;2023-10-13T03:46:57;14.70;99.90
2897;DHT22;1458;49.728;9.228;2023-10-13T03:49:34;14.70;99.90
2897;DHT22;1458;49.728;9.228;2023-10-13T03:52:04;14.60;99.90
2897;DHT22;1458;49.728;9.228;2023-10-13T03:54:33;14.60;99.90
2897;DHT22;1458;49.728;9.228;2023-10-13T03:57:02;14.60;99.90
2897;DHT22;1458;49.728;9.228;2023-10-13T03:59:37;14.70;99.90
2897;DHT22;1458;49.728;9.228;2023-10-13T04:02:05;14.70;99.90
2897;DHT22;1458;49.728;9.228;2023-10-13T04:04:40;14.70;99.90
2897;DHT22;1458;49.728;9.228;2023-10-13T04:07:14;14.60;99.90
2897;DHT22;1458;49.728;9.228;2023-10-13T04:10:16;14.60;99.90
2897;DHT22;1458;49.728;9.228;2023-10-13T04:13:02;14.50;99.90
2897;DHT22;1458;49.728;9.228;2023-10-13T04:15:47;14.50;99.90
2897;DHT22;1458;49.728;9.228;2023-10-13T04:18:40;14.40;99.90
2897;DHT22;1458;49.728;9.228;2023-10-13T04:21:29;14.40;99.90
2897;DHT22;1458;49.728;9.228;2023-10-13T04:24:06;14.30;99.90
2897;DHT22;1458;49.728;9.228;2023-10-13T04:26:53;14.30;99.90
2897;DHT22;1458;49.728;9.228;2023-10-13T04:29:42;14.20;99.90
2897;DHT22;1458;49.728;9.228;2023-10-13T04:32:18;14.00;99.90
2897;DHT22;1458;49.728;9.228;2023-10-13T04:34:55;14.00;99.90
2897;DHT22;1458;49.728;9.228;2023-10-13T04:37:25;13.80;99.90
2897;DHT22;1458;49.728;9.228;2023-10-13T04:39:55;13.90;99.90
2897;DHT22;1458;49.728;9.228;2023-10-13T04:42:35;13.80;99.90
2897;DHT22;1458;49.728;9.228;2023-10-13T04:45:17;13.80;99.90
2897;DHT22;1458;49.728;9.228;2023-10-13T04:48:05;13.80;99.90
2897;DHT22;1458;49.728;9.228;2023-10-13T04:50:59;14.00;99.90
2897;DHT22;1458;49.728;9.228;2023-10-13T04:53:45;14.10;99.90
2897;DHT22;1458;49.728;9.228;2023-10-13T04:56:30;14.10;99.90
2897;DHT22;1458;49.728;9.228;2023-10-13T04:59:15;14.10;99.90
2897;DHT22;1458;49.728;9.228;2023-10-13T05:02:02;14.10;99.90
2897;DHT22;1458;49.728;9.228;2023-10-13T05:04:47;14.00;99.90
2897;DHT22;1458;49.728;9.228;2023-10-13T05:07:33;14.00;99.90
2897;DHT22;1458;49.728;9.228;2023-10-13T05:10:18;14.00;99.90
2897;DHT22;1458;49.728;9.228;2023-10-13T05:13:04;14.00;99.90
2897;DHT22;1458;49.728;9.228;2023-10-13T05:15:50;14.10;99.90
2897;DHT22;1458;49.728;9.228;2023-10-13T05:18:36;14.20;99.90
2897;DHT22;1458;49.728;9.228;2023-10-13T05:21:22;14.30;99.90
2897;DHT22;1458;49.728;9.228;2023-10-13T05:24:07;14.20;99.90
2897;DHT22;1458;49.728;9.228;2023-10-13T05:26:53;14.30;99.90
2897;DHT22;1458;49.728;9.228;2023-10-13T05:29:39;14.30;99.90
2897;DHT22;1458;49.728;9.228;2023-10-13T05:32:24;14.30;99.90
2897;DHT22;1458;49.728;9.228;2023-10-13T05:35:10;14.30;99.90
2897;DHT22;1458;49.728;9.228;2023-10-13T05:37:55;14.30;99.90
2897;DHT22;1458;49.728;9.228;2023-10-13T05:40:40;14.40;99.90
2897;DHT22;1458;49.728;9.228;2023-10-13T05:43:35;14.30;99.90
2897;DHT22;1458;49.728;9.228;2023-10-13T05:46:20;14.40;99.90
2897;DHT22;1458;49.728;9.228;2023-10-13T05:49:14;14.40;99.90
2897;DHT22;1458;49.728;9.228;2023-10-13T05:52:07;14.40;99.90
2897;DHT22;1458;49.728;9.228;2023-10-13T05:54:46;14.50;99.90
2897;DHT22;1458;49.728;9.228;2023-10-13T05:57:31;14.50;99.90
2897;DHT22;1458;49.728;9.228;2023-10-13T06:00:16;14.60;99.90
2897;DHT22;1458;49.728;9.228;2023-10-13T06:03:01;14.60;99.90
2897;DHT22;1458;49.728;9.228;2023-10-13T06:05:47;14.70;99.90
2897;DHT22;1458;49.728;9.228;2023-10-13T06:08:34;14.60;99.90
2897;DHT22;1458;49.728;9.228;2023-10-13T06:11:19;14.70;99.90
2897;DHT22;1458;49.728;9.228;2023-10-13T06:14:04;14.70;99.90
2897;DHT22;1458;49.728;9.228;2023-10-13T06:16:49;14.70;99.90
2897;DHT22;1458;49.728;9.228;2023-10-13T06:19:34;14.80;99.90
2897;DHT22;1458;49.728;9.228;2023-10-13T06:22:18;14.80;99.90
2897;DHT22;1458;49.728;9.228;2023-10-13T06:25:05;14.90;99.90
2897;DHT22;1458;49.728;9.228;2023-10-13T06:27:51;14.80;99.90
2897;DHT22;1458;49.728;9.228;2023-10-13T06:30:35;14.80;99.90
2897;DHT22;1458;49.728;9.228;2023-10-13T06:33:04;14.80;99.90
2897;DHT22;1458;49.728;9.228;2023-10-13T06:35:31;14.80;99.90
2897;DHT22;1458;49.728;9.228;2023-10-13T06:38:00;14.70;99.90
2897;DHT22;1458;49.728;9.228;2023-10-13T06:40:30;14.80;99.90
2897;DHT22;1458;49.728;9.228;2023-10-13T06:43:00;14.80;99.90
2897;DHT22;1458;49.728;9.228;2023-10-13T06:45:43;15.00;99.90
2897;DHT22;1458;49.728;9.228;2023-10-13T06:48:16;15.10;99.90
2897;DHT22;1458;49.728;9.228;2023-10-13T06:50:48;15.30;99.90
2897;DHT22;1458;49.728;9.228;2023-10-13T06:53:18;15.50;99.90
2897;DHT22;1458;49.728;9.228;2023-10-13T06:55:46;15.50;99.90
2897;DHT22;1458;49.728;9.228;2023-10-13T06:58:18;15.50;99.90
2897;DHT22;1458;49.728;9.228;2023-10-13T07:00:50;15.70;99.90
2897;DHT22;1458;49.728;9.228;2023-10-13T07:03:22;15.70;99.90
2897;DHT22;1458;49.728;9.228;2023-10-13T07:05:51;15.70;99.90
2897;DHT22;1458;49.728;9.228;2023-10-13T07:08:19;15.80;99.90
2897;DHT22;1458;49.728;9.228;2023-10-13T07:10:49;15.80;99.90
2897;DHT22;1458;49.728;9.228;2023-10-13T07:13:27;15.90;99.90
2897;DHT22;1458;49.728;9.228;2023-10-13T07:15:55;16.00;99.90
2897;DHT22;1458;49.728;9.228;2023-10-13T07:18:27;16.10;99.90
2897;DHT22;1458;49.728;9.228;2023-10-13T07:21:02;16.30;99.90
2897;DHT22;1458;49.728;9.228;2023-10-13T07:23:36;16.30;99.90
2897;DHT22;1458;49.728;9.228;2023-10-13T07:26:06;16.50;99.90
2897;DHT22;1458;49.728;9.228;2023-10-13T07:28:34;16.60;99.90
2897;DHT22;1458;49.728;9.228;2023-10-13T07:31:12;16.70;99.90
2897;DHT22;1458;49.728;9.228;2023-10-13T07:33:40;16.90;99.90
2897;DHT22;1458;49.728;9.228;2023-10-13T07:36:09;17.10;99.90
2897;DHT22;1458;49.728;9.228;2023-10-13T07:38:42;17.30;99.90
2897;DHT22;1458;49.728;9.228;2023-10-13T07:41:15;17.50;99.90
2897;DHT22;1458;49.728;9.228;2023-10-13T07:43:43;17.70;99.90
2897;DHT22;1458;49.728;9.228;2023-10-13T07:46:12;17.90;99.90
2897;DHT22;1458;49.728;9.228;2023-10-13T07:48:39;18.10;97.90
2897;DHT22;1458;49.728;9.228;2023-10-13T07:51:11;18.40;96.80
2897;DHT22;1458;49.728;9.228;2023-10-13T07:53:42;18.60;94.80
2897;DHT22;1458;49.728;9.228;2023-10-13T07:56:09;18.80;93.90
2897;DHT22;1458;49.728;9.228;2023-10-13T07:58:39;19.10;91.60
2897;DHT22;1458;49.728;9.228;2023-10-13T08:01:18;19.20;92.50
2897;DHT22;1458;49.728;9.228;2023-10-13T08:03:45;19.30;89.30
2897;DHT22;1458;49.728;9.228;2023-10-13T08:06:14;19.30;88.70
2897;DHT22;1458;49.728;9.228;2023-10-13T08:08:52;19.30;86.00
2897;DHT22;1458;49.728;9.228;2023-10-13T08:11:33;19.40;86.50
2897;DHT22;1458;49.728;9.228;2023-10-13T08:14:05;19.30;83.90
2897;DHT22;1458;49.728;9.228;2023-10-13T08:16:48;19.40;83.80
2897;DHT22;1458;49.728;9.228;2023-10-13T08:19:26;19.50;80.70
2897;DHT22;1458;49.728;9.228;2023-10-13T08:22:06;19.60;81.40
2897;DHT22;1458;49.728;9.228;2023-10-13T08:24:50;19.70;81.80
2897;DHT22;1458;49.728;9.228;2023-10-13T08:27:38;19.80;77.20
2897;DHT22;1458;49.728;9.228;2023-10-13T08:30:17;19.90;77.80
2897;DHT22;1458;49.728;9.228;2023-10-13T08:32:55;19.90;77.60
2897;DHT22;1458;49.728;9.228;2023-10-13T08:35:24;20.00;76.10
2897;DHT22;1458;49.728;9.228;2023-10-13T08:38:01;20.00;74.10
2897;DHT22;1458;49.728;9.228;2023-10-13T08:40:44;20.00;72.40
2897;DHT22;1458;49.728;9.228;2023-10-13T08:43:40;20.10;74.30
2897;DHT22;1458;49.728;9.228;2023-10-13T08:46:13;20.20;72.90
2897;DHT22;1458;49.728;9.228;2023-10-13T08:48:56;20.20;72.30
2897;DHT22;1458;49.728;9.228;2023-10-13T08:51:41;20.20;72.00
2897;DHT22;1458;49.728;9.228;2023-10-13T08:54:15;20.20;73.10
2897;DHT22;1458;49.728;9.228;2023-10-13T08:56:47;20.30;73.20
2897;DHT22;1458;49.728;9.228;2023-10-13T08:59:22;20.30;71.70
2897;DHT22;1458;49.728;9.228;2023-10-13T09:02:00;20.40;68.60
2897;DHT22;1458;49.728;9.228;2023-10-13T09:04:43;20.50;70.30
2897;DHT22;1458;49.728;9.228;2023-10-13T09:07:10;20.50;69.60
2897;DHT22;1458;49.728;9.228;2023-10-13T09:09:48;20.60;66.00
2897;DHT22;1458;49.728;9.228;2023-10-13T09:12:28;20.70;68.50
2897;DHT22;1458;49.728;9.228;2023-10-13T09:15:06;20.80;69.50
2897;DHT22;1458;49.728;9.228;2023-10-13T09:17:48;20.90;68.60
2897;DHT22;1458;49.728;9.228;2023-10-13T09:20:27;20.90;67.00
2897;DHT22;1458;49.728;9.228;2023-10-13T09:23:09;21.00;66.80
2897;DHT22;1458;49.728;9.228;2023-10-13T09:25:39;21.20;64.70
2897;DHT22;1458;49.728;9.228;2023-10-13T09:28:20;21.20;67.30
2897;DHT22;1458;49.728;9.228;2023-10-13T09:30:49;21.30;64.50
2897;DHT22;1458;49.728;9.228;2023-10-13T09:33:22;21.40;65.30
2897;DHT22;1458;49.728;9.228;2023-10-13T09:35:58;21.70;64.50
2897;DHT22;1458;49.728;9.228;2023-10-13T09:38:27;21.90;61.50
2897;DHT22;1458;49.728;9.228;2023-10-13T09:40:54;22.10;63.70
2897;DHT22;1458;49.728;9.228;2023-10-13T09:43:27;22.30;61.30
2897;DHT22;1458;49.728;9.228;2023-10-13T09:45:59;22.50;59.50
2897;DHT22;1458;49.728;9.228;2023-10-13T09:48:33;22.80;59.20
2897;DHT22;1458;49.728;9.228;2023-10-13T09:51:03;22.90;57.00
2897;DHT22;1458;49.728;9.228;2023-10-13T09:53:35;23.10;56.50
2897;DHT22;1458;49.728;9.228;2023-10-13T09:56:09;23.10;51.90
2897;DHT22;1458;49.728;9.228;2023-10-13T09:58:50;22.80;52.80
2897;DHT22;1458;49.728;9.228;2023-10-13T10:01:25;22.40;54.40
2897;DHT22;1458;49.728;9.228;2023-10-13T10:04:09;22.30;56.10
2897;DHT22;1458;49.728;9.228;2023-10-13T10:06:40;22.20;56.40
2897;DHT22;1458;49.728;9.228;2023-10-13T10:09:11;22.40;57.30
2897;DHT22;1458;49.728;9.228;2023-10-13T10:12:01;22.40;54.70
2897;DHT22;1458;49.728;9.228;2023-10-13T10:15:16;22.60;53.80
2897;DHT22;1458;49.728;9.228;2023-10-13T10:17:54;22.50;51.70
2897;DHT22;1458;49.728;9.228;2023-10-13T10:20:29;22.70;52.10
2897;DHT22;1458;49.728;9.228;2023-10-13T10:23:06;22.70;55.40
2897;DHT22;1458;49.728;9.228;2023-10-13T10:25:36;22.60;51.00
2897;DHT22;1458;49.728;9.228;2023-10-13T10:28:05;22.70;52.80
2897;DHT22;1458;49.728;9.228;2023-10-13T10:30:35;22.80;49.00
2897;DHT22;1458;49.728;9.228;2023-10-13T10:33:05;22.90;51.00
2897;DHT22;1458;49.728;9.228;2023-10-13T10:35:39;23.10;50.40
2897;DHT22;1458;49.728;9.228;2023-10-13T10:38:09;23.30;45.70
2897;DHT22;1458;49.728;9.228;2023-10-13T10:40:54;23.50;47.30
2897;DHT22;1458;49.728;9.228;2023-10-13T10:43:26;23.80;47.80
2897;DHT22;1458;49.728;9.228;2023-10-13T10:46:07;24.20;45.00
2897;DHT22;1458;49.728;9.228;2023-10-13T10:48:37;24.40;41.00
2897;DHT22;1458;49.728;9.228;2023-10-13T10:51:10;24.70;42.70
2897;DHT22;1458;49.728;9.228;2023-10-13T10:53:47;24.80;42.20
2897;DHT22;1458;49.728;9.228;2023-10-13T10:56:16;25.00;42.70
2897;DHT22;1458;49.728;9.228;2023-10-13T10:58:47;25.20;39.80
2897;DHT22;1458;49.728;9.228;2023-10-13T11:01:15;25.30;39.70
2897;DHT22;1458;49.728;9.228;2023-10-13T11:03:56;25.40;39.20
2897;DHT22;1458;49.728;9.228;2023-10-13T11:06:27;25.40;36.90
2897;DHT22;1458;49.728;9.228;2023-10-13T11:09:04;25.50;37.00
2897;DHT22;1458;49.728;9.228;2023-10-13T11:11:45;25.50;39.30
2897;DHT22;1458;49.728;9.228;2023-10-13T11:14:21;25.80;36.00
2897;DHT22;1458;49.728;9.228;2023-10-13T11:16:54;25.90;35.30
2897;DHT22;1458;49.728;9.228;2023-10-13T11:19:34;25.70;35.20
2897;DHT22;1458;49.728;9.228;2023-10-13T11:22:11;25.60;35.10
2897;DHT22;1458;49.728;9.228;2023-10-13T11:24:55;25.60;32.60
2897;DHT22;1458;49.728;9.228;2023-10-13T11:27:29;25.50;34.50
2897;DHT22;1458;49.728;9.228;2023-10-13T11:30:21;25.50;34.90
2897;DHT22;1458;49.728;9.228;2023-10-13T11:32:59;25.30;35.00
2897;DHT22;1458;49.728;9.228;2023-10-13T11:35:31;25.00;33.30
2897;DHT22;1458;49.728;9.228;2023-10-13T11:38:14;24.90;34.70
2897;DHT22;1458;49.728;9.228;2023-10-13T11:40:51;25.00;36.50
2897;DHT22;1458;49.728;9.228;2023-10-13T11:43:39;24.90;36.50
2897;DHT22;1458;49.728;9.228;2023-10-13T11:46:33;24.90;34.90
2897;DHT22;1458;49.728;9.228;2023-10-13T11:49:17;25.00;34.30
2897;DHT22;1458;49.728;9.228;2023-10-13T11:51:51;25.00;36.60
2897;DHT22;1458;49.728;9.228;2023-10-13T11:54:23;24.90;36.40
2897;DHT22;1458;49.728;9.228;2023-10-13T11:56:50;24.80;36.40
2897;DHT22;1458;49.728;9.228;2023-10-13T11:59:17;24.70;36.30
2897;DHT22;1458;49.728;9.228;2023-10-13T12:01:46;24.60;36.10
2897;DHT22;1458;49.728;9.228;2023-10-13T12:04:31;24.50;36.00
2897;DHT22;1458;49.728;9.228;2023-10-13T12:07:07;24.60;36.10
2897;DHT22;1458;49.728;9.228;2023-10-13T12:09:49;24.60;37.70
2897;DHT22;1458;49.728;9.228;2023-10-13T12:12:34;24.60;36.10
2897;DHT22;1458;49.728;9.228;2023-10-13T12:15:09;24.70;36.10
2897;DHT22;1458;49.728;9.228;2023-10-13T12:17:51;24.80;35.00
2897;DHT22;1458;49.728;9.228;2023-10-13T12:20:18;24.90;36.40
2897;DHT22;1458;49.728;9.228;2023-10-13T12:22:59;24.70;36.20
2897;DHT22;1458;49.728;9.228;2023-10-13T12:25:38;24.60;35.50
2897;DHT22;1458;49.728;9.228;2023-10-13T12:28:23;24.60;33.90
2897;DHT22;1458;49.728;9.228;2023-10-13T12:30:53;24.60;35.10
2897;DHT22;1458;49.728;9.228;2023-10-13T12:33:24;24.60;35.70
2897;DHT22;1458;49.728;9.228;2023-10-13T12:35:56;24.50;36.00
2897;DHT22;1458;49.728;9.228;2023-10-13T12:38:33;24.60;37.10
2897;DHT22;1458;49.728;9.228;2023-10-13T12:41:19;24.70;36.20
2897;DHT22;1458;49.728;9.228;2023-10-13T12:44:06;24.90;36.00
2897;DHT22;1458;49.728;9.228;2023-10-13T12:46:51;25.10;32.60
2897;DHT22;1458;49.728;9.228;2023-10-13T12:49:36;25.30;33.60
2897;DHT22;1458;49.728;9.228;2023-10-13T12:52:18;25.40;32.70
2897;DHT22;1458;49.728;9.228;2023-10-13T12:54:46;25.50;32.50
2897;DHT22;1458;49.728;9.228;2023-10-13T12:57:26;25.60;34.00
2897;DHT22;1458;49.728;9.228;2023-10-13T12:59:55;25.50;33.50
2897;DHT22;1458;49.728;9.228;2023-10-13T13:02:23;25.60;32.50
2897;DHT22;1458;49.728;9.228;2023-10-13T13:04:51;25.50;34.10
2897;DHT22;1458;49.728;9.228;2023-10-13T13:07:22;25.40;32.30
2897;DHT22;1458;49.728;9.228;2023-10-13T13:09:55;25.30;31.90
2897;DHT22;1458;49.728;9.228;2023-10-13T13:12:27;25.60;32.10
2897;DHT22;1458;49.728;9.228;2023-10-13T13:14:55;25.70;30.40
2897;DHT22;1458;49.728;9.228;2023-10-13T13:17:22;25.70;31.10
2897;DHT22;1458;49.728;9.228;2023-10-13T13:19:49;25.80;30.10
2897;DHT22;1458;49.728;9.228;2023-10-13T13:22:17;25.80;30.70
2897;DHT22;1458;49.728;9.228;2023-10-13T13:24:46;25.90;28.80
2897;DHT22;1458;49.728;9.228;2023-10-13T13:27:14;26.10;28.60
2897;DHT22;1458;49.728;9.228;2023-10-13T13:29:46;26.40;28.40
2897;DHT22;1458;49.728;9.228;2023-10-13T13:32:14;26.50;26.30
2897;DHT22;1458;49.728;9.228;2023-10-13T13:34:45;26.40;25.40
2897;DHT22;1458;49.728;9.228;2023-10-13T13:37:20;26.30;24.40
2897;DHT22;1458;49.728;9.228;2023-10-13T13:39:47;26.10;25.90
2897;DHT22;1458;49.728;9.228;2023-10-13T13:42:18;26.10;24.90
2897;DHT22;1458;49.728;9.228;2023-10-13T13:44:47;26.00;27.10
2897;DHT22;1458;49.728;9.228;2023-10-13T13:47:15;26.20;26.70
2897;DHT22;1458;49.728;9.228;2023-10-13T13:49:43;26.30;24.90
2897;DHT22;1458;49.728;9.228;2023-10-13T13:52:17;26.30;26.00
2897;DHT22;1458;49.728;9.228;2023-10-13T13:54:47;26.20;24.50
2897;DHT22;1458;49.728;9.228;2023-10-13T13:57:14;26.20;26.10
2897;DHT22;1458;49.728;9.228;2023-10-13T13:59:43;26.20;25.50
2897;DHT22;1458;49.728;9.228;2023-10-13T14:02:12;26.30;25.30
2897;DHT22;1458;49.728;9.228;2023-10-13T14:04:46;26.20;26.80
2897;DHT22;1458;49.728;9.228;2023-10-13T14:07:17;26.00;25.80
2897;DHT22;1458;49.728;9.228;2023-10-13T14:12:22;26.00;26.30
2897;DHT22;1458;49.728;9.228;2023-10-13T14:15:08;26.00;26.90
2897;DHT22;1458;49.728;9.228;2023-10-13T14:17:47;25.90;25.50
2897;DHT22;1458;49.728;9.228;2023-10-13T14:20:15;25.90;26.30
2897;DHT22;1458;49.728;9.228;2023-10-13T14:22:45;25.90;24.20
2897;DHT22;1458;49.728;9.228;2023-10-13T14:25:14;25.80;25.80
2897;DHT22;1458;49.728;9.228;2023-10-13T14:27:42;25.60;25.30
2897;DHT22;1458;49.728;9.228;2023-10-13T14:30:11;25.50;26.30
2897;DHT22;1458;49.728;9.228;2023-10-13T14:32:45;25.50;25.60
2897;DHT22;1458;49.728;9.228;2023-10-13T14:35:13;25.50;24.90
2897;DHT22;1458;49.728;9.228;2023-10-13T14:37:41;25.50;25.60
2897;DHT22;1458;49.728;9.228;2023-10-13T14:40:09;25.60;25.50
2897;DHT22;1458;49.728;9.228;2023-10-13T14:42:39;25.60;25.10
2897;DHT22;1458;49.728;9.228;2023-10-13T14:45:07;25.60;25.40
2897;DHT22;1458;49.728;9.228;2023-10-13T14:47:39;25.60;25.40
2897;DHT22;1458;49.728;9.228;2023-10-13T14:50:10;25.60;25.40
2897;DHT22;1458;49.728;9.228;2023-10-13T14:52:46;25.60;25.20
2897;DHT22;1458;49.728;9.228;2023-10-13T14:55:14;25.50;25.00
2897;DHT22;1458;49.728;9.228;2023-10-13T14:57:47;25.40;25.50
2897;DHT22;1458;49.728;9.228;2023-10-13T15:00:16;25.20;26.50
2897;DHT22;1458;49.728;9.228;2023-10-13T15:02:51;25.20;25.80
2897;DHT22;1458;49.728;9.228;2023-10-13T15:05:20;25.10;26.20
2897;DHT22;1458;49.728;9.228;2023-10-13T15:07:48;25.10;26.40
2897;DHT22;1458;49.728;9.228;2023-10-13T15:10:17;25.00;25.70
2897;DHT22;1458;49.728;9.228;2023-10-13T15:12:44;25.00;25.40
2897;DHT22;1458;49.728;9.228;2023-10-13T15:15:12;25.00;25.70
2897;DHT22;1458;49.728;9.228;2023-10-13T15:17:44;24.80;26.20
2897;DHT22;1458;49.728;9.228;2023-10-13T15:20:12;24.80;26.30
2897;DHT22;1458;49.728;9.228;2023-10-13T15:22:44;24.80;25.70
2897;DHT22;1458;49.728;9.228;2023-10-13T15:25:13;24.80;27.20
2897;DHT22;1458;49.728;9.228;2023-10-13T15:27:57;24.80;25.00
2897;DHT22;1458;49.728;9.228;2023-10-13T15:30:28;24.70;25.70
2897;DHT22;1458;49.728;9.228;2023-10-13T15:33:10;24.60;26.00
2897;DHT22;1458;49.728;9.228;2023-10-13T15:35:39;24.50;25.70
2897;DHT22;1458;49.728;9.228;2023-10-13T15:38:10;24.50;25.40
2897;DHT22;1458;49.728;9.228;2023-10-13T15:40:41;24.60;25.10
2897;DHT22;1458;49.728;9.228;2023-10-13T15:43:09;24.40;26.90
2897;DHT22;1458;49.728;9.228;2023-10-13T15:45:37;24.20;27.20
2897;DHT22;1458;49.728;9.228;2023-10-13T15:48:12;24.20;25.60
2897;DHT22;1458;49.728;9.228;2023-10-13T15:50:41;24.20;25.80
2897;DHT22;1458;49.728;9.228;2023-10-13T15:53:10;24.20;26.60
2897;DHT22;1458;49.728;9.228;2023-10-13T15:55:39;24.20;25.50
2897;DHT22;1458;49.728;9.228;2023-10-13T15:58:07;24.20;25.20
2897;DHT22;1458;49.728;9.228;2023-10-13T16:00:35;24.20;26.10
2897;DHT22;1458;49.728;9.228;2023-10-13T16:03:04;24.20;25.90
2897;DHT22;1458;49.728;9.228;2023-10-13T16:05:37;24.20;26.10
2897;DHT22;1458;49.728;9.228;2023-10-13T16:08:07;24.10;25.50
2897;DHT22;1458;49.728;9.228;2023-10-13T16:10:38;24.20;25.10
2897;DHT22;1458;49.728;9.228;2023-10-13T16:13:06;24.20;25.10
2897;DHT22;1458;49.728;9.228;2023-10-13T16:15:40;24.00;25.90
2897;DHT22;1458;49.728;9.228;2023-10-13T16:18:09;23.70;26.30
2897;DHT22;1458;49.728;9.228;2023-10-13T16:20:37;23.70;26.30
2897;DHT22;1458;49.728;9.228;2023-10-13T16:23:05;23.50;27.20
2897;DHT22;1458;49.728;9.228;2023-10-13T16:25:38;23.30;28.20
2897;DHT22;1458;49.728;9.228;2023-10-13T16:28:09;23.20;29.10
2897;DHT22;1458;49.728;9.228;2023-10-13T16:30:37;23.10;30.30
2897;DHT22;1458;49.728;9.228;2023-10-13T16:33:05;23.10;29.30
2897;DHT22;1458;49.728;9.228;2023-10-13T16:35:32;23.00;29.80
2897;DHT22;1458;49.728;9.228;2023-10-13T16:38:00;22.80;29.80
2897;DHT22;1458;49.728;9.228;2023-10-13T16:40:32;22.80;30.00
2897;DHT22;1458;49.728;9.228;2023-10-13T16:43:01;22.70;30.30
2897;DHT22;1458;49.728;9.228;2023-10-13T16:45:28;22.80;30.40
2897;DHT22;1458;49.728;9.228;2023-10-13T16:47:57;22.70;31.00
2897;DHT22;1458;49.728;9.228;2023-10-13T16:50:25;22.80;30.20
2897;DHT22;1458;49.728;9.228;2023-10-13T16:52:54;22.70;30.00